createdAt,value
2018-05-04T00:02:35.777Z,94060.89
2018-05-04T00:17:37.261Z,94063.83
2018-05-04T00:32:35.084Z,94072.66
2018-05-04T00:47:34.306Z,94087.08
2018-05-04T01:02:34.625Z,94091.60
2018-05-04T01:17:35.398Z,94097.72
2018-05-04T01:32:34.706Z,94115.81
2018-05-04T01:47:39.344Z,94104.86
2018-05-04T02:02:36.525Z,94096.35
2018-05-04T02:17:34.948Z,94093.02
2018-05-04T02:32:36.523Z,94107.57
2018-05-04T02:47:36.503Z,94121.16
2018-05-04T03:02:40.517Z,94109.45
2018-05-04T03:17:36.828Z,94128.31
2018-05-04T03:32:34.799Z,94126.42
2018-05-04T03:47:34.282Z,94142.40
2018-05-04T04:02:46.288Z,94153.14
2018-05-04T04:17:35.652Z,94152.09
2018-05-04T04:32:36.498Z,94154.53
2018-05-04T04:47:34.298Z,94176.36
2018-05-04T05:02:34.758Z,94180.42
2018-05-04T05:17:34.982Z,94190.65
2018-05-04T05:32:34.879Z,94181.11
2018-05-04T05:47:37.091Z,94185.86
2018-05-04T06:02:35.262Z,94192.84
2018-05-04T06:17:35.111Z,94213.76
2018-05-04T06:32:35.123Z,94196.41
2018-05-04T06:47:39.734Z,94201.84
2018-05-04T07:02:34.611Z,94196.39
2018-05-04T07:17:37.458Z,94210.05
2018-05-04T07:32:34.612Z,94200.61
2018-05-04T07:47:34.553Z,94206.08
2018-05-04T08:02:36.989Z,94201.90
2018-05-04T08:17:35.178Z,94222.95
2018-05-04T08:32:35.202Z,94223.22
2018-05-04T08:47:37.237Z,94237.56
2018-05-04T09:02:35.255Z,94223.06
2018-05-04T09:17:35.198Z,94205.50
2018-05-04T09:32:35.278Z,94209.79
2018-05-04T09:47:34.935Z,94203.98
2018-05-04T10:02:36.539Z,94204.88
2018-05-04T10:17:37.443Z,94198.54
2018-05-04T10:32:36.918Z,94201.45
2018-05-04T10:47:34.382Z,94204.18
2018-05-04T11:02:34.866Z,94205.66
2018-05-04T11:17:34.789Z,94194.08
2018-05-04T11:32:36.182Z,94186.12
2018-05-04T11:47:37.116Z,94174.20
2018-05-04T12:02:36.155Z,94168.25
2018-05-04T12:17:35.118Z,94168.73
2018-05-04T12:32:35.541Z,94147.40
2018-05-04T12:47:37.126Z,94152.15
2018-05-04T13:02:37.466Z,94141.25
2018-05-04T13:17:37.398Z,94129.95
2018-05-04T13:32:34.579Z,94150.68
2018-05-04T13:47:34.311Z,94166.31
2018-05-04T14:02:34.057Z,94167.39
2018-05-04T14:17:34.676Z,94209.20
2018-05-04T14:32:34.863Z,94220.50
2018-05-04T14:47:37.030Z,94218.69
2018-05-04T15:02:34.842Z,94225.45
2018-05-04T15:17:35.046Z,94237.44
2018-05-04T15:32:34.101Z,94196.91
2018-05-04T15:47:36.102Z,94177.66
2018-05-04T16:02:34.382Z,94194.38
2018-05-04T16:17:34.193Z,94185.68
2018-05-04T16:32:34.262Z,94153.69
2018-05-04T16:47:34.182Z,94169.26
2018-05-04T17:02:34.470Z,94212.27
2018-05-04T17:17:34.547Z,94231.73
2018-05-04T17:32:34.974Z,94234.81
2018-05-04T17:47:34.454Z,94233.11
2018-05-04T18:02:50.227Z,94233.94
2018-05-04T18:17:41.205Z,94249.58
2018-05-04T18:32:36.524Z,94267.31
2018-05-04T18:47:35.360Z,94287.20
2018-05-04T19:02:45.066Z,94311.34
2018-05-04T19:17:34.788Z,94322.27
2018-05-04T19:32:36.978Z,94323.34
2018-05-04T19:47:38.682Z,94319.66
2018-05-04T20:02:34.509Z,94308.05
2018-05-04T20:17:39.609Z,94308.73
2018-05-04T20:32:34.800Z,94301.73
2018-05-04T20:47:34.940Z,94293.46
2018-05-04T21:02:35.135Z,94282.38
2018-05-04T21:17:37.022Z,94292.34
2018-05-04T21:32:34.426Z,94303.11
2018-05-04T21:47:36.405Z,94312.56
2018-05-04T22:02:34.293Z,94323.19
2018-05-04T22:17:34.673Z,94333.95
2018-05-04T22:32:34.577Z,94329.88
2018-05-04T22:47:36.673Z,94329.22
2018-05-04T23:02:34.702Z,94342.75
2018-05-04T23:17:33.894Z,94335.27
2018-05-04T23:32:34.459Z,94330.98
2018-05-04T23:47:34.854Z,94337.66
